sensor_id;sensor_type;location;lat;lon;timestamp;pressure;altitude;pressure_sealevel;temperature;humidity
44751;BME280;30477;48.224;11.470;2024-01-30T00:01:50;97450.25;;;0.81;71.43
44751;BME280;30477;48.224;11.470;2024-01-30T00:04:17;97446.09;;;0.77;71.43
44751;BME280;30477;48.224;11.470;2024-01-30T00:06:43;97442.72;;;0.77;71.41
44751;BME280;30477;48.224;11.470;2024-01-30T00:09:09;97451.22;;;0.77;71.67
44751;BME280;30477;48.224;11.470;2024-01-30T00:11:36;97448.72;;;0.76;71.25
44751;BME280;30477;48.224;11.470;2024-01-30T00:14:02;97450.41;;;0.75;71.46
44751;BME280;30477;48.224;11.470;2024-01-30T00:16:28;97455.66;;;0.71;71.54
44751;BME280;30477;48.224;11.470;2024-01-30T00:18:55;97451.44;;;0.70;71.49
44751;BME280;30477;48.224;11.470;2024-01-30T00:21:21;97455.69;;;0.69;71.58
44751;BME280;30477;48.224;11.470;2024-01-30T00:23:47;97448.13;;;0.68;71.46
44751;BME280;30477;48.224;11.470;2024-01-30T00:26:14;97454.13;;;0.65;71.43
44751;BME280;30477;48.224;11.470;2024-01-30T00:28:43;97449.22;;;0.59;71.48
44751;BME280;30477;48.224;11.470;2024-01-30T00:31:08;97455.91;;;0.63;71.69
44751;BME280;30477;48.224;11.470;2024-01-30T00:33:38;97449.13;;;0.62;71.90
44751;BME280;30477;48.224;11.470;2024-01-30T00:36:05;97455.97;;;0.60;71.76
44751;BME280;30477;48.224;11.470;2024-01-30T00:38:31;97451.66;;;0.62;71.54
44751;BME280;30477;48.224;11.470;2024-01-30T00:40:57;97448.47;;;0.55;71.65
44751;BME280;30477;48.224;11.470;2024-01-30T00:43:22;97454.50;;;0.53;71.66
44751;BME280;30477;48.224;11.470;2024-01-30T00:45:49;97455.53;;;0.46;71.58
44751;BME280;30477;48.224;11.470;2024-01-30T00:48:17;97459.00;;;0.43;71.73
44751;BME280;30477;48.224;11.470;2024-01-30T00:50:42;97448.00;;;0.43;71.76
44751;BME280;30477;48.224;11.470;2024-01-30T00:53:08;97456.66;;;0.35;71.85
44751;BME280;30477;48.224;11.470;2024-01-30T00:55:35;97453.41;;;0.30;72.12
44751;BME280;30477;48.224;11.470;2024-01-30T00:58:00;97450.94;;;0.27;72.13
44751;BME280;30477;48.224;11.470;2024-01-30T01:00:26;97453.69;;;0.21;72.38
44751;BME280;30477;48.224;11.470;2024-01-30T01:02:57;97453.69;;;0.21;72.24
44751;BME280;30477;48.224;11.470;2024-01-30T01:05:22;97455.50;;;0.16;72.83
44751;BME280;30477;48.224;11.470;2024-01-30T01:07:48;97459.97;;;0.08;72.78
44751;BME280;30477;48.224;11.470;2024-01-30T01:10:14;97456.59;;;0.07;73.02
44751;BME280;30477;48.224;11.470;2024-01-30T01:12:39;97460.94;;;0.02;73.05
44751;BME280;30477;48.224;11.470;2024-01-30T01:15:05;97457.56;;;0.03;73.13
44751;BME280;30477;48.224;11.470;2024-01-30T01:17:34;97459.16;;;0.06;73.33
44751;BME280;30477;48.224;11.470;2024-01-30T01:20:00;97457.41;;;0.08;73.38
44751;BME280;30477;48.224;11.470;2024-01-30T01:22:25;97455.53;;;0.14;73.38
44751;BME280;30477;48.224;11.470;2024-01-30T01:24:52;97464.03;;;0.15;73.45
44751;BME280;30477;48.224;11.470;2024-01-30T01:27:17;97458.16;;;0.13;73.50
44751;BME280;30477;48.224;11.470;2024-01-30T01:29:44;97459.94;;;0.09;73.30
44751;BME280;30477;48.224;11.470;2024-01-30T01:32:10;97455.00;;;0.03;73.15
44751;BME280;30477;48.224;11.470;2024-01-30T01:34:36;97459.09;;;0.09;73.42
44751;BME280;30477;48.224;11.470;2024-01-30T01:37:03;97449.91;;;0.03;73.16
44751;BME280;30477;48.224;11.470;2024-01-30T01:39:28;97448.34;;;-0.03;73.27
44751;BME280;30477;48.224;11.470;2024-01-30T01:41:53;97452.66;;;-0.05;73.39
44751;BME280;30477;48.224;11.470;2024-01-30T01:44:19;97444.31;;;-0.10;73.33
44751;BME280;30477;48.224;11.470;2024-01-30T01:46:44;97456.31;;;-0.15;73.48
44751;BME280;30477;48.224;11.470;2024-01-30T01:49:10;97449.47;;;-0.13;73.61
44751;BME280;30477;48.224;11.470;2024-01-30T01:51:36;97447.66;;;-0.08;73.61
44751;BME280;30477;48.224;11.470;2024-01-30T01:54:04;97452.75;;;-0.08;73.58
44751;BME280;30477;48.224;11.470;2024-01-30T01:56:34;97451.06;;;-0.09;73.74
44751;BME280;30477;48.224;11.470;2024-01-30T01:59:05;97452.13;;;-0.16;73.85
44751;BME280;30477;48.224;11.470;2024-01-30T02:01:32;97454.91;;;-0.25;73.80
44751;BME280;30477;48.224;11.470;2024-01-30T02:04:00;97460.81;;;-0.25;74.05
44751;BME280;30477;48.224;11.470;2024-01-30T02:06:26;97459.22;;;-0.29;74.29
44751;BME280;30477;48.224;11.470;2024-01-30T02:08:52;97454.09;;;-0.27;74.63
44751;BME280;30477;48.224;11.470;2024-01-30T02:11:18;97445.69;;;-0.29;74.34
44751;BME280;30477;48.224;11.470;2024-01-30T02:13:43;97448.13;;;-0.26;74.46
44751;BME280;30477;48.224;11.470;2024-01-30T02:16:08;97447.28;;;-0.25;74.49
44751;BME280;30477;48.224;11.470;2024-01-30T02:18:34;97448.28;;;-0.32;74.65
44751;BME280;30477;48.224;11.470;2024-01-30T02:21:04;97442.44;;;-0.36;74.65
44751;BME280;30477;48.224;11.470;2024-01-30T02:23:33;97450.13;;;-0.37;74.77
44751;BME280;30477;48.224;11.470;2024-01-30T02:25:59;97438.25;;;-0.38;74.68
44751;BME280;30477;48.224;11.470;2024-01-30T02:28:25;97444.94;;;-0.34;74.62
44751;BME280;30477;48.224;11.470;2024-01-30T02:30:50;97450.03;;;-0.34;74.31
44751;BME280;30477;48.224;11.470;2024-01-30T02:33:16;97450.72;;;-0.28;74.72
44751;BME280;30477;48.224;11.470;2024-01-30T02:35:41;97444.88;;;-0.31;74.57
44751;BME280;30477;48.224;11.470;2024-01-30T02:38:07;97442.44;;;-0.36;74.45
44751;BME280;30477;48.224;11.470;2024-01-30T02:40:32;97451.06;;;-0.42;74.56
44751;BME280;30477;48.224;11.470;2024-01-30T02:42:59;97447.78;;;-0.47;74.52
44751;BME280;30477;48.224;11.470;2024-01-30T02:45:25;97447.88;;;-0.50;74.54
44751;BME280;30477;48.224;11.470;2024-01-30T02:47:50;97436.75;;;-0.46;74.74
44751;BME280;30477;48.224;11.470;2024-01-30T02:50:15;97443.50;;;-0.45;74.58
44751;BME280;30477;48.224;11.470;2024-01-30T02:52:41;97435.13;;;-0.48;74.75
44751;BME280;30477;48.224;11.470;2024-01-30T02:55:09;97436.75;;;-0.46;74.66
44751;BME280;30477;48.224;11.470;2024-01-30T02:57:34;97431.66;;;-0.44;74.64
44751;BME280;30477;48.224;11.470;2024-01-30T03:00:00;97433.41;;;-0.48;74.42
44751;BME280;30477;48.224;11.470;2024-01-30T03:02:25;97427.50;;;-0.48;74.60
44751;BME280;30477;48.224;11.470;2024-01-30T03:04:50;97424.00;;;-0.44;74.65
44751;BME280;30477;48.224;11.470;2024-01-30T03:07:16;97429.28;;;-0.52;74.41
44751;BME280;30477;48.224;11.470;2024-01-30T03:09:43;97432.63;;;-0.50;74.57
44751;BME280;30477;48.224;11.470;2024-01-30T03:12:09;97427.38;;;-0.44;74.46
44751;BME280;30477;48.224;11.470;2024-01-30T03:14:34;97424.75;;;-0.41;74.54
44751;BME280;30477;48.224;11.470;2024-01-30T03:17:00;97422.16;;;-0.37;74.23
44751;BME280;30477;48.224;11.470;2024-01-30T03:19:25;97430.63;;;-0.38;74.18
44751;BME280;30477;48.224;11.470;2024-01-30T03:21:51;97425.69;;;-0.45;74.04
44751;BME280;30477;48.224;11.470;2024-01-30T03:24:17;97424.19;;;-0.52;73.84
44751;BME280;30477;48.224;11.470;2024-01-30T03:26:43;97427.53;;;-0.50;74.10
44751;BME280;30477;48.224;11.470;2024-01-30T03:29:08;97415.84;;;-0.57;74.06
44751;BME280;30477;48.224;11.470;2024-01-30T03:31:35;97421.81;;;-0.58;74.08
44751;BME280;30477;48.224;11.470;2024-01-30T03:34:01;97417.44;;;-0.53;74.04
44751;BME280;30477;48.224;11.470;2024-01-30T03:36:27;97420.97;;;-0.58;74.21
44751;BME280;30477;48.224;11.470;2024-01-30T03:38:53;97421.66;;;-0.52;74.26
44751;BME280;30477;48.224;11.470;2024-01-30T03:41:19;97410.59;;;-0.51;73.96
44751;BME280;30477;48.224;11.470;2024-01-30T03:43:44;97414.88;;;-0.53;74.02
44751;BME280;30477;48.224;11.470;2024-01-30T03:46:12;97414.88;;;-0.53;73.99
44751;BME280;30477;48.224;11.470;2024-01-30T03:48:37;97411.59;;;-0.56;73.91
44751;BME280;30477;48.224;11.470;2024-01-30T03:51:03;97412.56;;;-0.60;73.74
44751;BME280;30477;48.224;11.470;2024-01-30T03:53:29;97417.72;;;-0.65;74.30
44751;BME280;30477;48.224;11.470;2024-01-30T03:55:55;97416.91;;;-0.66;74.14
44751;BME280;30477;48.224;11.470;2024-01-30T03:58:20;97422.81;;;-0.65;74.01
44751;BME280;30477;48.224;11.470;2024-01-30T04:00:46;97419.38;;;-0.63;73.94
44751;BME280;30477;48.224;11.470;2024-01-30T04:03:11;97414.28;;;-0.63;74.01
44751;BME280;30477;48.224;11.470;2024-01-30T04:05:36;97411.88;;;-0.67;73.83
44751;BME280;30477;48.224;11.470;2024-01-30T04:08:02;97421.97;;;-0.64;74.11
44751;BME280;30477;48.224;11.470;2024-01-30T04:10:27;97416.72;;;-0.58;74.04
44751;BME280;30477;48.224;11.470;2024-01-30T04:12:53;97414.09;;;-0.55;74.12
44751;BME280;30477;48.224;11.470;2024-01-30T04:15:19;97411.53;;;-0.55;74.00
44751;BME280;30477;48.224;11.470;2024-01-30T04:17:44;97413.22;;;-0.54;73.79
44751;BME280;30477;48.224;11.470;2024-01-30T04:20:15;97420.06;;;-0.56;73.92
44751;BME280;30477;48.224;11.470;2024-01-30T04:22:44;97414.16;;;-0.56;73.66
44751;BME280;30477;48.224;11.470;2024-01-30T04:25:10;97418.38;;;-0.57;73.80
44751;BME280;30477;48.224;11.470;2024-01-30T04:27:35;97417.56;;;-0.59;73.66
44751;BME280;30477;48.224;11.470;2024-01-30T04:30:01;97414.09;;;-0.55;73.62
44751;BME280;30477;48.224;11.470;2024-01-30T04:32:26;97415.78;;;-0.54;73.54
44751;BME280;30477;48.224;11.470;2024-01-30T04:34:51;97420.09;;;-0.57;73.47
44751;BME280;30477;48.224;11.470;2024-01-30T04:37:17;97419.25;;;-0.58;73.21
44751;BME280;30477;48.224;11.470;2024-01-30T04:39:42;97419.38;;;-0.63;73.27
44751;BME280;30477;48.224;11.470;2024-01-30T04:42:08;97424.50;;;-0.64;73.40
44751;BME280;30477;48.224;11.470;2024-01-30T04:44:33;97411.88;;;-0.67;73.40
44751;BME280;30477;48.224;11.470;2024-01-30T04:46:58;97416.09;;;-0.68;73.50
44751;BME280;30477;48.224;11.470;2024-01-30T04:49:26;97413.56;;;-0.68;73.37
44751;BME280;30477;48.224;11.470;2024-01-30T04:51:52;97421.97;;;-0.64;73.55
44751;BME280;30477;48.224;11.470;2024-01-30T04:54:17;97417.63;;;-0.60;73.41
44751;BME280;30477;48.224;11.470;2024-01-30T04:56:42;97429.56;;;-0.63;73.59
44751;BME280;30477;48.224;11.470;2024-01-30T04:59:08;97423.56;;;-0.60;73.37
44751;BME280;30477;48.224;11.470;2024-01-30T05:01:33;97429.47;;;-0.59;73.62
44751;BME280;30477;48.224;11.470;2024-01-30T05:03:59;97417.69;;;-0.64;73.48
44751;BME280;30477;48.224;11.470;2024-01-30T05:06:27;97419.44;;;-0.66;73.38
44751;BME280;30477;48.224;11.470;2024-01-30T05:08:53;97422.88;;;-0.67;73.36
44751;BME280;30477;48.224;11.470;2024-01-30T05:11:19;97424.47;;;-0.63;73.58
44751;BME280;30477;48.224;11.470;2024-01-30T05:13:45;97420.97;;;-0.58;73.51
44751;BME280;30477;48.224;11.470;2024-01-30T05:16:11;97429.44;;;-0.58;73.20
44751;BME280;30477;48.224;11.470;2024-01-30T05:18:38;97428.63;;;-0.60;73.39
44751;BME280;30477;48.224;11.470;2024-01-30T05:21:03;97430.44;;;-0.65;73.15
44751;BME280;30477;48.224;11.470;2024-01-30T05:23:29;97423.66;;;-0.65;73.33
44751;BME280;30477;48.224;11.470;2024-01-30T05:25:54;97427.03;;;-0.64;73.41
44751;BME280;30477;48.224;11.470;2024-01-30T05:28:20;97429.47;;;-0.59;73.45
44751;BME280;30477;48.224;11.470;2024-01-30T05:30:45;97426.94;;;-0.61;73.14
44751;BME280;30477;48.224;11.470;2024-01-30T05:33:10;97426.06;;;-0.58;73.29
44751;BME280;30477;48.224;11.470;2024-01-30T05:35:37;97429.34;;;-0.55;73.18
44751;BME280;30477;48.224;11.470;2024-01-30T05:38:04;97428.53;;;-0.57;73.14
44751;BME280;30477;48.224;11.470;2024-01-30T05:40:30;97433.63;;;-0.57;73.30
44751;BME280;30477;48.224;11.470;2024-01-30T05:42:55;97433.63;;;-0.57;73.22
44751;BME280;30477;48.224;11.470;2024-01-30T05:45:21;97432.03;;;-0.61;73.28
44751;BME280;30477;48.224;11.470;2024-01-30T05:47:48;97430.44;;;-0.65;73.19
44751;BME280;30477;48.224;11.470;2024-01-30T05:50:13;97439.03;;;-0.69;73.17
44751;BME280;30477;48.224;11.470;2024-01-30T05:52:39;97438.16;;;-0.68;73.42
44751;BME280;30477;48.224;11.470;2024-01-30T05:55:04;97437.31;;;-0.67;73.56
44751;BME280;30477;48.224;11.470;2024-01-30T05:57:30;97437.19;;;-0.63;73.36
44751;BME280;30477;48.224;11.470;2024-01-30T05:59:56;97438.72;;;-0.57;73.12
44751;BME280;30477;48.224;11.470;2024-01-30T06:02:21;97435.44;;;-0.60;73.31
44751;BME280;30477;48.224;11.470;2024-01-30T06:04:47;97431.97;;;-0.58;73.40
44751;BME280;30477;48.224;11.470;2024-01-30T06:07:12;97440.41;;;-0.56;73.34
44751;BME280;30477;48.224;11.470;2024-01-30T06:09:38;97442.00;;;-0.52;73.39
44751;BME280;30477;48.224;11.470;2024-01-30T06:12:04;97438.66;;;-0.54;73.26
44751;BME280;30477;48.224;11.470;2024-01-30T06:14:30;97438.69;;;-0.55;73.21
44751;BME280;30477;48.224;11.470;2024-01-30T06:16:57;97437.88;;;-0.57;73.16
44751;BME280;30477;48.224;11.470;2024-01-30T06:19:22;97443.78;;;-0.55;73.08
44751;BME280;30477;48.224;11.470;2024-01-30T06:21:47;97440.44;;;-0.57;73.00
44751;BME280;30477;48.224;11.470;2024-01-30T06:24:13;97447.38;;;-0.64;73.04
44751;BME280;30477;48.224;11.470;2024-01-30T06:26:38;97445.59;;;-0.60;73.19
44751;BME280;30477;48.224;11.470;2024-01-30T06:29:04;97448.97;;;-0.60;73.03
44751;BME280;30477;48.224;11.470;2024-01-30T06:31:31;97456.88;;;-0.71;73.13
44751;BME280;30477;48.224;11.470;2024-01-30T06:33:56;97445.91;;;-0.73;73.15
44751;BME280;30477;48.224;11.470;2024-01-30T06:36:21;97460.94;;;-0.65;73.27
44751;BME280;30477;48.224;11.470;2024-01-30T06:38:47;97466.63;;;-0.54;73.15
44751;BME280;30477;48.224;11.470;2024-01-30T06:41:12;97459.06;;;-0.57;73.20
44751;BME280;30477;48.224;11.470;2024-01-30T06:43:37;97463.31;;;-0.57;73.50
44751;BME280;30477;48.224;11.470;2024-01-30T06:46:03;97463.34;;;-0.59;73.34
44751;BME280;30477;48.224;11.470;2024-01-30T06:48:28;97460.75;;;-0.56;72.96
44751;BME280;30477;48.224;11.470;2024-01-30T06:50:54;97467.44;;;-0.52;73.07
44751;BME280;30477;48.224;11.470;2024-01-30T06:53:20;97464.78;;;-0.49;72.98
44751;BME280;30477;48.224;11.470;2024-01-30T06:55:45;97461.38;;;-0.46;73.08
44751;BME280;30477;48.224;11.470;2024-01-30T06:58:11;97467.13;;;-0.39;72.83
44751;BME280;30477;48.224;11.470;2024-01-30T07:00:36;97466.97;;;-0.33;73.02
44751;BME280;30477;48.224;11.470;2024-01-30T07:03:02;97463.56;;;-0.32;72.84
44751;BME280;30477;48.224;11.470;2024-01-30T07:05:30;97465.53;;;-0.44;72.85
44751;BME280;30477;48.224;11.470;2024-01-30T07:07:55;97461.38;;;-0.46;72.62
44751;BME280;30477;48.224;11.470;2024-01-30T07:10:21;97470.53;;;-0.41;72.62
44751;BME280;30477;48.224;11.470;2024-01-30T07:12:46;97466.19;;;-0.35;72.63
44751;BME280;30477;48.224;11.470;2024-01-30T07:15:12;97467.56;;;-0.24;72.74
44751;BME280;30477;48.224;11.470;2024-01-30T07:17:39;97458.91;;;-0.16;72.66
44751;BME280;30477;48.224;11.470;2024-01-30T07:20:07;97467.19;;;-0.08;72.64
44751;BME280;30477;48.224;11.470;2024-01-30T07:22:34;97467.13;;;-0.07;72.13
44751;BME280;30477;48.224;11.470;2024-01-30T07:24:59;97473.09;;;-0.08;72.38
44751;BME280;30477;48.224;11.470;2024-01-30T07:27:25;97475.00;;;-0.16;72.34
44751;BME280;30477;48.224;11.470;2024-01-30T07:29:53;97475.16;;;-0.22;72.17
44751;BME280;30477;48.224;11.470;2024-01-30T07:32:18;97474.22;;;-0.18;72.23
44751;BME280;30477;48.224;11.470;2024-01-30T07:34:44;97475.63;;;-0.06;72.33
44751;BME280;30477;48.224;11.470;2024-01-30T07:37:10;97476.28;;;0.01;72.25
44751;BME280;30477;48.224;11.470;2024-01-30T07:39:35;97473.66;;;0.04;72.21
44751;BME280;30477;48.224;11.470;2024-01-30T07:42:01;97476.03;;;0.10;72.34
44751;BME280;30477;48.224;11.470;2024-01-30T07:44:26;97475.88;;;0.16;72.28
44751;BME280;30477;48.224;11.470;2024-01-30T07:46:51;97484.25;;;0.21;72.30
44751;BME280;30477;48.224;11.470;2024-01-30T07:49:20;97481.56;;;0.26;72.08
44751;BME280;30477;48.224;11.470;2024-01-30T07:51:45;97492.31;;;0.35;72.21
44751;BME280;30477;48.224;11.470;2024-01-30T07:54:15;97492.22;;;0.40;72.08
44751;BME280;30477;48.224;11.470;2024-01-30T07:56:40;97488.59;;;0.47;71.99
44751;BME280;30477;48.224;11.470;2024-01-30T07:59:09;97490.94;;;0.55;71.84
44751;BME280;30477;48.224;11.470;2024-01-30T08:01:34;97500.19;;;0.59;71.54
44751;BME280;30477;48.224;11.470;2024-01-30T08:04:00;97496.66;;;0.63;71.64
44751;BME280;30477;48.224;11.470;2024-01-30T08:06:25;97500.06;;;0.62;71.59
44751;BME280;30477;48.224;11.470;2024-01-30T08:08:50;97495.56;;;0.72;71.70
44751;BME280;30477;48.224;11.470;2024-01-30T08:11:20;97492.69;;;0.83;71.58
44751;BME280;30477;48.224;11.470;2024-01-30T08:13:45;97498.59;;;0.85;71.78
44751;BME280;30477;48.224;11.470;2024-01-30T08:16:10;97497.63;;;0.89;71.68
44751;BME280;30477;48.224;11.470;2024-01-30T08:18:36;97499.84;;;0.99;71.85
44751;BME280;30477;48.224;11.470;2024-01-30T08:21:03;97495.38;;;1.06;71.79
44751;BME280;30477;48.224;11.470;2024-01-30T08:23:29;97496.88;;;1.13;71.81
44751;BME280;30477;48.224;11.470;2024-01-30T08:25:54;97496.78;;;1.16;71.99
44751;BME280;30477;48.224;11.470;2024-01-30T08:28:20;97490.56;;;1.25;71.83
44751;BME280;30477;48.224;11.470;2024-01-30T08:30:45;97498.81;;;1.33;71.83
44751;BME280;30477;48.224;11.470;2024-01-30T08:33:11;97497.72;;;1.40;72.15
44751;BME280;30477;48.224;11.470;2024-01-30T08:35:37;97487.28;;;1.48;72.36
44751;BME280;30477;48.224;11.470;2024-01-30T08:38:03;97489.66;;;1.54;72.23
44751;BME280;30477;48.224;11.470;2024-01-30T08:40:29;97491.22;;;1.58;72.71
44751;BME280;30477;48.224;11.470;2024-01-30T08:42:55;97496.97;;;1.65;72.71
44751;BME280;30477;48.224;11.470;2024-01-30T08:45:22;97494.25;;;1.70;72.71
44751;BME280;30477;48.224;11.470;2024-01-30T08:47:47;97494.84;;;1.78;72.81
44751;BME280;30477;48.224;11.470;2024-01-30T08:50:13;97490.34;;;1.85;72.75
44751;BME280;30477;48.224;11.470;2024-01-30T08:52:38;97494.44;;;1.90;72.60
44751;BME280;30477;48.224;11.470;2024-01-30T08:55:04;97489.06;;;1.98;72.52
44751;BME280;30477;48.224;11.470;2024-01-30T08:57:30;97493.00;;;2.08;72.43
44751;BME280;30477;48.224;11.470;2024-01-30T08:59:55;97492.81;;;2.13;72.43
44751;BME280;30477;48.224;11.470;2024-01-30T09:02:22;97492.44;;;2.23;72.16
44751;BME280;30477;48.224;11.470;2024-01-30T09:04:47;97499.84;;;2.31;71.93
44751;BME280;30477;48.224;11.470;2024-01-30T09:07:13;97498.91;;;2.34;71.57
44751;BME280;30477;48.224;11.470;2024-01-30T09:09:43;97506.28;;;2.41;71.26
44751;BME280;30477;48.224;11.470;2024-01-30T09:12:08;97503.47;;;2.49;71.20
44751;BME280;30477;48.224;11.470;2024-01-30T09:14:37;97509.31;;;2.53;70.87
44751;BME280;30477;48.224;11.470;2024-01-30T09:17:02;97510.91;;;2.55;70.58
44751;BME280;30477;48.224;11.470;2024-01-30T09:19:28;97508.97;;;2.62;70.37
44751;BME280;30477;48.224;11.470;2024-01-30T09:21:55;97504.19;;;2.76;70.09
44751;BME280;30477;48.224;11.470;2024-01-30T09:24:20;97511.50;;;2.85;69.55
44751;BME280;30477;48.224;11.470;2024-01-30T09:26:46;97510.41;;;2.93;69.63
44751;BME280;30477;48.224;11.470;2024-01-30T09:29:11;97511.19;;;2.95;68.88
44751;BME280;30477;48.224;11.470;2024-01-30T09:31:36;97516.19;;;2.98;68.81
44751;BME280;30477;48.224;11.470;2024-01-30T09:34:02;97515.06;;;3.05;68.63
44751;BME280;30477;48.224;11.470;2024-01-30T09:36:27;97515.00;;;3.07;68.36
44751;BME280;30477;48.224;11.470;2024-01-30T09:38:53;97512.97;;;3.15;68.23
44751;BME280;30477;48.224;11.470;2024-01-30T09:41:19;97510.91;;;3.24;67.96
44751;BME280;30477;48.224;11.470;2024-01-30T09:43:47;97519.91;;;3.35;68.02
44751;BME280;30477;48.224;11.470;2024-01-30T09:46:17;97516.19;;;3.42;67.76
44751;BME280;30477;48.224;11.470;2024-01-30T09:48:47;97515.72;;;3.54;67.75
44751;BME280;30477;48.224;11.470;2024-01-30T09:51:15;97515.25;;;3.66;67.50
44751;BME280;30477;48.224;11.470;2024-01-30T09:53:43;97513.06;;;3.78;67.33
44751;BME280;30477;48.224;11.470;2024-01-30T09:56:12;97508.56;;;3.84;66.98
44751;BME280;30477;48.224;11.470;2024-01-30T09:58:38;97510.16;;;3.87;66.99
44751;BME280;30477;48.224;11.470;2024-01-30T10:01:05;97507.25;;;3.95;66.69
44751;BME280;30477;48.224;11.470;2024-01-30T10:03:31;97510.16;;;4.07;66.61
44751;BME280;30477;48.224;11.470;2024-01-30T10:05:56;97498.59;;;4.18;66.28
44751;BME280;30477;48.224;11.470;2024-01-30T10:08:21;97505.22;;;4.23;65.90
44751;BME280;30477;48.224;11.470;2024-01-30T10:10:47;97507.47;;;4.31;65.86
44751;BME280;30477;48.224;11.470;2024-01-30T10:13:12;97504.44;;;4.42;65.60
44751;BME280;30477;48.224;11.470;2024-01-30T10:15:37;97505.13;;;4.45;65.36
44751;BME280;30477;48.224;11.470;2024-01-30T10:18:04;97503.06;;;4.54;65.27
44751;BME280;30477;48.224;11.470;2024-01-30T10:20:31;97497.53;;;4.63;65.13
44751;BME280;30477;48.224;11.470;2024-01-30T10:22:57;97494.53;;;4.72;64.98
44751;BME280;30477;48.224;11.470;2024-01-30T10:25:22;97494.00;;;4.84;64.77
44751;BME280;30477;48.224;11.470;2024-01-30T10:27:52;97492.69;;;4.95;64.69
44751;BME280;30477;48.224;11.470;2024-01-30T10:30:17;97490.75;;;5.00;64.56
44751;BME280;30477;48.224;11.470;2024-01-30T10:32:44;97480.06;;;5.09;64.48
44751;BME280;30477;48.224;11.470;2024-01-30T10:35:09;97482.19;;;5.18;64.46
44751;BME280;30477;48.224;11.470;2024-01-30T10:37:36;97482.53;;;5.29;64.43
44751;BME280;30477;48.224;11.470;2024-01-30T10:40:02;97476.88;;;5.40;64.46
44751;BME280;30477;48.224;11.470;2024-01-30T10:42:29;97469.06;;;5.61;64.48
44751;BME280;30477;48.224;11.470;2024-01-30T10:44:57;97466.41;;;5.80;63.92
44751;BME280;30477;48.224;11.470;2024-01-30T10:47:28;97465.63;;;5.97;63.65
44751;BME280;30477;48.224;11.470;2024-01-30T10:49:54;97457.13;;;6.12;63.35
44751;BME280;30477;48.224;11.470;2024-01-30T10:52:20;97454.44;;;6.31;63.21
44751;BME280;30477;48.224;11.470;2024-01-30T10:54:46;97448.28;;;6.51;62.76
44751;BME280;30477;48.224;11.470;2024-01-30T10:57:12;97437.72;;;6.71;62.38
44751;BME280;30477;48.224;11.470;2024-01-30T10:59:39;97434.66;;;6.97;62.03
44751;BME280;30477;48.224;11.470;2024-01-30T11:02:05;97439.28;;;7.22;61.07
44751;BME280;30477;48.224;11.470;2024-01-30T11:04:37;97435.81;;;7.53;59.90
44751;BME280;30477;48.224;11.470;2024-01-30T11:07:13;97431.84;;;7.78;58.47
44751;BME280;30477;48.224;11.470;2024-01-30T11:09:39;97424.50;;;7.86;57.26
44751;BME280;30477;48.224;11.470;2024-01-30T11:12:04;97428.00;;;7.99;56.35
44751;BME280;30477;48.224;11.470;2024-01-30T11:14:30;97434.50;;;8.06;55.11
44751;BME280;30477;48.224;11.470;2024-01-30T11:16:59;97428.75;;;8.01;54.55
44751;BME280;30477;48.224;11.470;2024-01-30T11:19:25;97424.91;;;8.08;53.80
44751;BME280;30477;48.224;11.470;2024-01-30T11:21:51;97419.94;;;8.34;53.42
44751;BME280;30477;48.224;11.470;2024-01-30T11:24:19;97419.75;;;8.66;52.71
44751;BME280;30477;48.224;11.470;2024-01-30T11:26:44;97414.94;;;8.74;52.04
44751;BME280;30477;48.224;11.470;2024-01-30T11:29:09;97405.91;;;8.67;51.01
44751;BME280;30477;48.224;11.470;2024-01-30T11:31:38;97403.94;;;8.85;50.93
44751;BME280;30477;48.224;11.470;2024-01-30T11:34:03;97406.97;;;9.19;50.36
44751;BME280;30477;48.224;11.470;2024-01-30T11:36:30;97408.47;;;9.35;49.58
44751;BME280;30477;48.224;11.470;2024-01-30T11:38:57;97402.81;;;9.43;49.08
44751;BME280;30477;48.224;11.470;2024-01-30T11:41:22;97401.56;;;9.49;48.63
44751;BME280;30477;48.224;11.470;2024-01-30T11:43:54;97412.63;;;9.51;48.00
44751;BME280;30477;48.224;11.470;2024-01-30T11:46:20;97400.97;;;9.45;47.74
44751;BME280;30477;48.224;11.470;2024-01-30T11:48:45;97400.25;;;9.56;47.85
44751;BME280;30477;48.224;11.470;2024-01-30T11:51:11;97396.56;;;9.86;47.64
44751;BME280;30477;48.224;11.470;2024-01-30T11:53:38;97393.47;;;10.06;47.18
44751;BME280;30477;48.224;11.470;2024-01-30T11:56:05;97392.22;;;10.25;47.07
44751;BME280;30477;48.224;11.470;2024-01-30T11:58:31;97383.31;;;10.54;46.88
44751;BME280;30477;48.224;11.470;2024-01-30T12:00:56;97391.28;;;10.51;46.31
44751;BME280;30477;48.224;11.470;2024-01-30T12:03:21;97378.31;;;10.51;46.56
44751;BME280;30477;48.224;11.470;2024-01-30T12:05:47;97382.25;;;10.57;46.27
44751;BME280;30477;48.224;11.470;2024-01-30T12:08:20;97376.13;;;10.71;46.04
44751;BME280;30477;48.224;11.470;2024-01-30T12:10:46;97372.16;;;10.78;46.21
44751;BME280;30477;48.224;11.470;2024-01-30T12:13:11;97367.16;;;10.75;45.73
44751;BME280;30477;48.224;11.470;2024-01-30T12:15:36;97367.78;;;10.54;45.89
44751;BME280;30477;48.224;11.470;2024-01-30T12:18:06;97366.91;;;10.54;45.73
44751;BME280;30477;48.224;11.470;2024-01-30T12:20:32;97360.34;;;10.50;45.72
44751;BME280;30477;48.224;11.470;2024-01-30T12:22:57;97354.72;;;10.43;45.79
44751;BME280;30477;48.224;11.470;2024-01-30T12:25:23;97357.75;;;10.37;45.79
44751;BME280;30477;48.224;11.470;2024-01-30T12:27:49;97358.69;;;10.36;45.76
44751;BME280;30477;48.224;11.470;2024-01-30T12:30:19;97350.59;;;10.28;45.91
44751;BME280;30477;48.224;11.470;2024-01-30T12:32:45;97345.03;;;10.34;46.15
44751;BME280;30477;48.224;11.470;2024-01-30T12:35:11;97345.94;;;10.33;45.88
44751;BME280;30477;48.224;11.470;2024-01-30T12:37:37;97350.22;;;10.34;46.09
44751;BME280;30477;48.224;11.470;2024-01-30T12:40:02;97340.69;;;10.34;46.33
44751;BME280;30477;48.224;11.470;2024-01-30T12:42:28;97337.75;;;10.39;45.98
44751;BME280;30477;48.224;11.470;2024-01-30T12:44:53;97337.56;;;10.42;46.31
44751;BME280;30477;48.224;11.470;2024-01-30T12:47:21;97341.88;;;10.54;46.30
44751;BME280;30477;48.224;11.470;2024-01-30T12:49:46;97331.38;;;10.69;46.15